sensor_id;sensor_type;location;lat;lon;timestamp;temperature;humidity
70820;DHT22;58439;51.046;13.692;2022-07-31T00:09:44;17.00;74.70
70820;DHT22;58439;51.046;13.692;2022-07-31T00:12:31;16.90;75.10
70820;DHT22;58439;51.046;13.692;2022-07-31T00:15:22;16.90;75.30
70820;DHT22;58439;51.046;13.692;2022-07-31T00:18:10;16.80;75.40
70820;DHT22;58439;51.046;13.692;2022-07-31T00:20:57;16.80;75.60
70820;DHT22;58439;51.046;13.692;2022-07-31T00:24:43;16.80;75.70
70820;DHT22;58439;51.046;13.692;2022-07-31T00:28:06;16.70;75.70
70820;DHT22;58439;51.046;13.692;2022-07-31T00:34:06;16.60;76.20
70820;DHT22;58439;51.046;13.692;2022-07-31T00:37:50;16.70;76.30
70820;DHT22;58439;51.046;13.692;2022-07-31T00:41:22;16.70;75.90
70820;DHT22;58439;51.046;13.692;2022-07-31T00:47:21;16.80;75.60
70820;DHT22;58439;51.046;13.692;2022-07-31T00:50:06;16.70;75.70
70820;DHT22;58439;51.046;13.692;2022-07-31T00:52:47;16.70;76.00
70820;DHT22;58439;51.046;13.692;2022-07-31T00:55:24;16.70;75.90
70820;DHT22;58439;51.046;13.692;2022-07-31T00:58:22;16.70;76.10
70820;DHT22;58439;51.046;13.692;2022-07-31T01:00:59;16.70;76.20
70820;DHT22;58439;51.046;13.692;2022-07-31T01:03:31;16.70;76.10
70820;DHT22;58439;51.046;13.692;2022-07-31T01:10:52;16.70;76.10
70820;DHT22;58439;51.046;13.692;2022-07-31T01:13:53;16.70;76.00
70820;DHT22;58439;51.046;13.692;2022-07-31T01:16:40;16.60;76.70
70820;DHT22;58439;51.046;13.692;2022-07-31T01:25:28;16.40;77.10
70820;DHT22;58439;51.046;13.692;2022-07-31T01:28:40;16.50;76.50
70820;DHT22;58439;51.046;13.692;2022-07-31T01:31:21;16.50;76.30
70820;DHT22;58439;51.046;13.692;2022-07-31T01:34:21;16.50;76.10
70820;DHT22;58439;51.046;13.692;2022-07-31T01:41:24;16.50;76.50
70820;DHT22;58439;51.046;13.692;2022-07-31T01:44:07;16.50;76.40
70820;DHT22;58439;51.046;13.692;2022-07-31T01:51:15;16.50;76.00
70820;DHT22;58439;51.046;13.692;2022-07-31T01:54:08;16.40;76.10
70820;DHT22;58439;51.046;13.692;2022-07-31T01:58:01;16.40;76.10
70820;DHT22;58439;51.046;13.692;2022-07-31T02:01:14;16.40;77.20
70820;DHT22;58439;51.046;13.692;2022-07-31T02:03:57;16.50;76.10
70820;DHT22;58439;51.046;13.692;2022-07-31T02:07:06;16.50;75.80
70820;DHT22;58439;51.046;13.692;2022-07-31T02:09:48;16.50;75.80
70820;DHT22;58439;51.046;13.692;2022-07-31T02:12:31;16.40;75.90
70820;DHT22;58439;51.046;13.692;2022-07-31T02:15:13;16.40;76.10
70820;DHT22;58439;51.046;13.692;2022-07-31T02:18:01;16.40;76.30
70820;DHT22;58439;51.046;13.692;2022-07-31T02:26:57;16.40;76.30
70820;DHT22;58439;51.046;13.692;2022-07-31T02:30:18;16.40;75.80
70820;DHT22;58439;51.046;13.692;2022-07-31T02:33:01;16.30;75.80
70820;DHT22;58439;51.046;13.692;2022-07-31T02:36:12;16.30;75.80
70820;DHT22;58439;51.046;13.692;2022-07-31T02:39:11;16.20;75.90
70820;DHT22;58439;51.046;13.692;2022-07-31T02:41:55;16.20;76.00
70820;DHT22;58439;51.046;13.692;2022-07-31T02:45:37;16.20;76.00
70820;DHT22;58439;51.046;13.692;2022-07-31T02:48:46;16.20;76.30
70820;DHT22;58439;51.046;13.692;2022-07-31T02:52:45;16.10;76.20
70820;DHT22;58439;51.046;13.692;2022-07-31T02:55:26;16.10;76.10
70820;DHT22;58439;51.046;13.692;2022-07-31T02:58:08;16.00;76.40
70820;DHT22;58439;51.046;13.692;2022-07-31T03:00:54;16.00;76.20
70820;DHT22;58439;51.046;13.692;2022-07-31T03:03:31;16.00;76.40
70820;DHT22;58439;51.046;13.692;2022-07-31T03:06:11;16.10;76.10
70820;DHT22;58439;51.046;13.692;2022-07-31T03:12:33;16.00;76.40
70820;DHT22;58439;51.046;13.692;2022-07-31T03:15:38;16.10;76.20
70820;DHT22;58439;51.046;13.692;2022-07-31T03:23:10;16.10;75.90
70820;DHT22;58439;51.046;13.692;2022-07-31T03:25:58;16.10;76.00
70820;DHT22;58439;51.046;13.692;2022-07-31T03:28:32;16.10;75.80
70820;DHT22;58439;51.046;13.692;2022-07-31T03:31:16;16.10;75.70
70820;DHT22;58439;51.046;13.692;2022-07-31T03:33:48;16.00;75.90
70820;DHT22;58439;51.046;13.692;2022-07-31T03:36:45;16.00;75.90
70820;DHT22;58439;51.046;13.692;2022-07-31T03:39:20;16.00;75.90
70820;DHT22;58439;51.046;13.692;2022-07-31T03:43:30;16.00;75.80
70820;DHT22;58439;51.046;13.692;2022-07-31T03:46:22;16.00;75.90
70820;DHT22;58439;51.046;13.692;2022-07-31T03:49:09;16.00;75.80
70820;DHT22;58439;51.046;13.692;2022-07-31T03:52:14;16.00;75.70
70820;DHT22;58439;51.046;13.692;2022-07-31T03:55:18;16.10;75.80
70820;DHT22;58439;51.046;13.692;2022-07-31T03:59:29;16.20;75.40
70820;DHT22;58439;51.046;13.692;2022-07-31T04:02:35;16.20;75.20
70820;DHT22;58439;51.046;13.692;2022-07-31T04:05:30;16.20;75.10
70820;DHT22;58439;51.046;13.692;2022-07-31T04:08:02;16.20;75.20
70820;DHT22;58439;51.046;13.692;2022-07-31T04:11:18;16.20;75.30
70820;DHT22;58439;51.046;13.692;2022-07-31T04:14:15;16.30;75.10
70820;DHT22;58439;51.046;13.692;2022-07-31T04:18:17;16.40;74.70
70820;DHT22;58439;51.046;13.692;2022-07-31T04:21:28;16.40;74.60
70820;DHT22;58439;51.046;13.692;2022-07-31T04:24:15;16.50;74.30
70820;DHT22;58439;51.046;13.692;2022-07-31T04:31:50;16.60;74.00
70820;DHT22;58439;51.046;13.692;2022-07-31T04:35:24;16.60;73.80
70820;DHT22;58439;51.046;13.692;2022-07-31T04:38:30;16.70;73.70
70820;DHT22;58439;51.046;13.692;2022-07-31T04:41:16;16.70;73.50
70820;DHT22;58439;51.046;13.692;2022-07-31T04:44:56;16.80;73.40
70820;DHT22;58439;51.046;13.692;2022-07-31T04:48:09;16.90;73.20
70820;DHT22;58439;51.046;13.692;2022-07-31T04:50:49;17.00;72.90
70820;DHT22;58439;51.046;13.692;2022-07-31T04:54:26;17.00;72.70
70820;DHT22;58439;51.046;13.692;2022-07-31T04:57:33;17.10;72.50
70820;DHT22;58439;51.046;13.692;2022-07-31T05:00:52;17.20;72.10
70820;DHT22;58439;51.046;13.692;2022-07-31T05:04:38;17.30;72.10
70820;DHT22;58439;51.046;13.692;2022-07-31T05:12:55;17.60;71.10
70820;DHT22;58439;51.046;13.692;2022-07-31T05:20:33;17.80;70.30
70820;DHT22;58439;51.046;13.692;2022-07-31T05:29:03;18.10;69.50
70820;DHT22;58439;51.046;13.692;2022-07-31T05:35:46;18.40;68.30
70820;DHT22;58439;51.046;13.692;2022-07-31T05:38:40;18.60;67.20
70820;DHT22;58439;51.046;13.692;2022-07-31T05:48:57;19.00;65.60
70820;DHT22;58439;51.046;13.692;2022-07-31T06:01:02;19.40;63.50
70820;DHT22;58439;51.046;13.692;2022-07-31T06:04:54;19.40;63.50
70820;DHT22;58439;51.046;13.692;2022-07-31T06:07:30;19.60;63.10
70820;DHT22;58439;51.046;13.692;2022-07-31T06:10:18;19.60;63.00
70820;DHT22;58439;51.046;13.692;2022-07-31T06:13:02;19.70;62.80
70820;DHT22;58439;51.046;13.692;2022-07-31T06:23:40;20.10;62.10
70820;DHT22;58439;51.046;13.692;2022-07-31T06:27:08;20.20;61.50
70820;DHT22;58439;51.046;13.692;2022-07-31T06:31:59;20.30;61.40
70820;DHT22;58439;51.046;13.692;2022-07-31T06:34:55;20.50;60.60
70820;DHT22;58439;51.046;13.692;2022-07-31T06:43:41;20.70;60.30
70820;DHT22;58439;51.046;13.692;2022-07-31T06:46:31;20.80;60.00
70820;DHT22;58439;51.046;13.692;2022-07-31T06:49:39;20.90;59.70
70820;DHT22;58439;51.046;13.692;2022-07-31T06:52:34;21.00;59.70
70820;DHT22;58439;51.046;13.692;2022-07-31T06:55:52;21.20;59.40
70820;DHT22;58439;51.046;13.692;2022-07-31T06:58:50;21.40;59.00
70820;DHT22;58439;51.046;13.692;2022-07-31T07:01:40;21.60;58.60
70820;DHT22;58439;51.046;13.692;2022-07-31T07:04:08;21.70;57.60
70820;DHT22;58439;51.046;13.692;2022-07-31T07:06:38;21.70;57.10
70820;DHT22;58439;51.046;13.692;2022-07-31T07:09:18;21.80;56.80
70820;DHT22;58439;51.046;13.692;2022-07-31T07:12:09;21.80;56.50
70820;DHT22;58439;51.046;13.692;2022-07-31T07:15:01;21.80;56.00
70820;DHT22;58439;51.046;13.692;2022-07-31T07:17:38;21.80;56.50
70820;DHT22;58439;51.046;13.692;2022-07-31T07:20:26;21.90;56.80
70820;DHT22;58439;51.046;13.692;2022-07-31T07:23:21;22.00;56.40
70820;DHT22;58439;51.046;13.692;2022-07-31T07:26:39;22.10;56.40
70820;DHT22;58439;51.046;13.692;2022-07-31T07:29:16;22.20;55.80
70820;DHT22;58439;51.046;13.692;2022-07-31T07:32:47;22.30;55.20
70820;DHT22;58439;51.046;13.692;2022-07-31T07:36:30;22.40;55.00
70820;DHT22;58439;51.046;13.692;2022-07-31T07:42:56;22.70;53.20
70820;DHT22;58439;51.046;13.692;2022-07-31T07:45:45;22.70;53.40
70820;DHT22;58439;51.046;13.692;2022-07-31T07:49:03;22.70;53.00
70820;DHT22;58439;51.046;13.692;2022-07-31T07:51:52;22.70;52.90
70820;DHT22;58439;51.046;13.692;2022-07-31T07:54:41;22.80;52.40
70820;DHT22;58439;51.046;13.692;2022-07-31T07:57:27;22.70;52.60
70820;DHT22;58439;51.046;13.692;2022-07-31T08:00:07;22.80;52.40
70820;DHT22;58439;51.046;13.692;2022-07-31T08:06:24;23.00;51.90
70820;DHT22;58439;51.046;13.692;2022-07-31T08:10:21;23.10;51.20
70820;DHT22;58439;51.046;13.692;2022-07-31T08:13:46;23.20;50.50
70820;DHT22;58439;51.046;13.692;2022-07-31T08:18:10;23.20;50.80
70820;DHT22;58439;51.046;13.692;2022-07-31T08:21:43;23.40;49.50
70820;DHT22;58439;51.046;13.692;2022-07-31T08:29:47;23.70;48.40
70820;DHT22;58439;51.046;13.692;2022-07-31T08:40:35;24.00;48.30
70820;DHT22;58439;51.046;13.692;2022-07-31T08:47:24;24.20;46.00
70820;DHT22;58439;51.046;13.692;2022-07-31T08:50:37;24.30;46.20
70820;DHT22;58439;51.046;13.692;2022-07-31T08:55:07;24.40;45.80
70820;DHT22;58439;51.046;13.692;2022-07-31T08:59:01;24.50;45.80
70820;DHT22;58439;51.046;13.692;2022-07-31T09:02:14;24.60;44.70
70820;DHT22;58439;51.046;13.692;2022-07-31T09:05:45;24.70;43.70
70820;DHT22;58439;51.046;13.692;2022-07-31T09:09:14;24.80;43.50
70820;DHT22;58439;51.046;13.692;2022-07-31T09:17:39;25.10;42.40
70820;DHT22;58439;51.046;13.692;2022-07-31T09:21:19;25.10;41.70
70820;DHT22;58439;51.046;13.692;2022-07-31T09:25:11;25.20;42.00
70820;DHT22;58439;51.046;13.692;2022-07-31T09:28:46;25.40;41.60
70820;DHT22;58439;51.046;13.692;2022-07-31T09:31:34;25.60;41.00
70820;DHT22;58439;51.046;13.692;2022-07-31T09:35:28;25.70;40.30
70820;DHT22;58439;51.046;13.692;2022-07-31T09:38:09;26.00;39.30
70820;DHT22;58439;51.046;13.692;2022-07-31T09:41:35;26.10;38.90
70820;DHT22;58439;51.046;13.692;2022-07-31T09:45:20;26.30;38.40
70820;DHT22;58439;51.046;13.692;2022-07-31T09:52:19;26.30;36.10
70820;DHT22;58439;51.046;13.692;2022-07-31T10:14:58;26.70;35.20
70820;DHT22;58439;51.046;13.692;2022-07-31T10:23:51;27.10;34.50
70820;DHT22;58439;51.046;13.692;2022-07-31T10:36:50;27.70;34.10
70820;DHT22;58439;51.046;13.692;2022-07-31T10:43:58;27.40;33.90
70820;DHT22;58439;51.046;13.692;2022-07-31T10:47:28;27.40;33.40
70820;DHT22;58439;51.046;13.692;2022-07-31T10:54:51;27.80;32.00
70820;DHT22;58439;51.046;13.692;2022-07-31T10:58:30;27.40;33.20
70820;DHT22;58439;51.046;13.692;2022-07-31T11:08:09;27.70;33.40
70820;DHT22;58439;51.046;13.692;2022-07-31T11:12:30;27.60;32.30
70820;DHT22;58439;51.046;13.692;2022-07-31T11:30:06;29.30;29.40
70820;DHT22;58439;51.046;13.692;2022-07-31T11:53:25;30.40;28.20
70820;DHT22;58439;51.046;13.692;2022-07-31T11:56:00;31.00;25.90
70820;DHT22;58439;51.046;13.692;2022-07-31T11:58:28;30.00;26.90
70820;DHT22;58439;51.046;13.692;2022-07-31T12:01:27;29.20;28.20
70820;DHT22;58439;51.046;13.692;2022-07-31T12:04:16;28.50;29.00
70820;DHT22;58439;51.046;13.692;2022-07-31T12:06:55;28.20;30.00
70820;DHT22;58439;51.046;13.692;2022-07-31T12:09:26;28.10;29.50
70820;DHT22;58439;51.046;13.692;2022-07-31T12:12:17;28.10;30.50
70820;DHT22;58439;51.046;13.692;2022-07-31T12:14:59;29.00;28.30
70820;DHT22;58439;51.046;13.692;2022-07-31T12:17:31;30.50;27.00
70820;DHT22;58439;51.046;13.692;2022-07-31T12:20:08;31.90;24.90
70820;DHT22;58439;51.046;13.692;2022-07-31T12:22:38;32.90;23.90
70820;DHT22;58439;51.046;13.692;2022-07-31T12:25:10;33.70;23.10
70820;DHT22;58439;51.046;13.692;2022-07-31T12:27:41;34.20;21.40
70820;DHT22;58439;51.046;13.692;2022-07-31T12:30:15;33.60;20.70
70820;DHT22;58439;51.046;13.692;2022-07-31T12:32:43;32.70;21.60
70820;DHT22;58439;51.046;13.692;2022-07-31T12:35:11;32.60;21.80
70820;DHT22;58439;51.046;13.692;2022-07-31T12:37:46;32.70;22.40
70820;DHT22;58439;51.046;13.692;2022-07-31T12:40:26;33.30;21.10
70820;DHT22;58439;51.046;13.692;2022-07-31T12:42:54;33.60;20.70
70820;DHT22;58439;51.046;13.692;2022-07-31T12:48:06;34.30;20.00
70820;DHT22;58439;51.046;13.692;2022-07-31T12:50:33;34.50;18.50
70820;DHT22;58439;51.046;13.692;2022-07-31T12:53:01;34.30;19.20
70820;DHT22;58439;51.046;13.692;2022-07-31T12:55:32;34.40;19.60
70820;DHT22;58439;51.046;13.692;2022-07-31T12:58:00;34.30;19.70
70820;DHT22;58439;51.046;13.692;2022-07-31T13:00:27;34.50;19.90
70820;DHT22;58439;51.046;13.692;2022-07-31T13:02:56;35.10;19.50
70820;DHT22;58439;51.046;13.692;2022-07-31T13:05:24;35.40;18.80
70820;DHT22;58439;51.046;13.692;2022-07-31T13:07:52;35.00;18.90
70820;DHT22;58439;51.046;13.692;2022-07-31T13:10:19;34.10;19.20
70820;DHT22;58439;51.046;13.692;2022-07-31T13:12:51;33.70;19.70
70820;DHT22;58439;51.046;13.692;2022-07-31T13:15:20;34.00;19.50
70820;DHT22;58439;51.046;13.692;2022-07-31T13:17:56;34.40;19.10
70820;DHT22;58439;51.046;13.692;2022-07-31T13:20:25;34.90;19.30
70820;DHT22;58439;51.046;13.692;2022-07-31T13:22:52;35.40;19.10
70820;DHT22;58439;51.046;13.692;2022-07-31T13:25:19;35.60;18.40
70820;DHT22;58439;51.046;13.692;2022-07-31T13:27:47;35.80;18.40
70820;DHT22;58439;51.046;13.692;2022-07-31T13:30:14;36.10;17.70
70820;DHT22;58439;51.046;13.692;2022-07-31T13:32:42;36.30;17.10
70820;DHT22;58439;51.046;13.692;2022-07-31T13:35:09;36.10;16.80
70820;DHT22;58439;51.046;13.692;2022-07-31T13:37:53;35.80;16.90
70820;DHT22;58439;51.046;13.692;2022-07-31T13:40:20;35.80;17.40
70820;DHT22;58439;51.046;13.692;2022-07-31T13:43:06;35.80;17.20
70820;DHT22;58439;51.046;13.692;2022-07-31T13:45:34;35.70;17.60
70820;DHT22;58439;51.046;13.692;2022-07-31T13:48:02;35.90;17.40
70820;DHT22;58439;51.046;13.692;2022-07-31T13:50:38;36.20;17.10
70820;DHT22;58439;51.046;13.692;2022-07-31T13:53:07;36.00;17.00
70820;DHT22;58439;51.046;13.692;2022-07-31T13:55:36;36.00;17.10
70820;DHT22;58439;51.046;13.692;2022-07-31T13:58:03;36.10;16.70
70820;DHT22;58439;51.046;13.692;2022-07-31T14:00:31;36.20;16.80
70820;DHT22;58439;51.046;13.692;2022-07-31T14:02:58;36.40;16.60
70820;DHT22;58439;51.046;13.692;2022-07-31T14:05:26;36.30;16.60
70820;DHT22;58439;51.046;13.692;2022-07-31T14:07:56;36.70;16.40
70820;DHT22;58439;51.046;13.692;2022-07-31T14:10:45;37.20;15.60
70820;DHT22;58439;51.046;13.692;2022-07-31T14:13:17;37.10;15.50
70820;DHT22;58439;51.046;13.692;2022-07-31T14:15:46;36.70;15.80
70820;DHT22;58439;51.046;13.692;2022-07-31T14:18:13;36.60;16.00
70820;DHT22;58439;51.046;13.692;2022-07-31T14:20:40;36.80;15.40
70820;DHT22;58439;51.046;13.692;2022-07-31T14:23:08;37.00;15.70
70820;DHT22;58439;51.046;13.692;2022-07-31T14:25:36;37.00;14.90
70820;DHT22;58439;51.046;13.692;2022-07-31T14:28:05;36.70;15.20
70820;DHT22;58439;51.046;13.692;2022-07-31T14:30:33;36.70;15.30
70820;DHT22;58439;51.046;13.692;2022-07-31T14:33:03;36.60;15.20
70820;DHT22;58439;51.046;13.692;2022-07-31T14:35:33;36.40;15.30
70820;DHT22;58439;51.046;13.692;2022-07-31T14:38:00;35.70;15.40
70820;DHT22;58439;51.046;13.692;2022-07-31T14:40:30;35.10;15.90
70820;DHT22;58439;51.046;13.692;2022-07-31T14:42:57;35.30;16.00
70820;DHT22;58439;51.046;13.692;2022-07-31T14:45:24;35.70;15.70
70820;DHT22;58439;51.046;13.692;2022-07-31T14:47:52;36.30;15.40
70820;DHT22;58439;51.046;13.692;2022-07-31T14:50:21;36.50;14.90
70820;DHT22;58439;51.046;13.692;2022-07-31T14:52:49;36.60;15.90
70820;DHT22;58439;51.046;13.692;2022-07-31T14:55:17;36.90;14.50
70820;DHT22;58439;51.046;13.692;2022-07-31T14:57:45;36.90;13.90
70820;DHT22;58439;51.046;13.692;2022-07-31T15:00:12;36.80;13.70
70820;DHT22;58439;51.046;13.692;2022-07-31T15:02:41;36.60;13.60
70820;DHT22;58439;51.046;13.692;2022-07-31T15:05:10;36.60;13.70
70820;DHT22;58439;51.046;13.692;2022-07-31T15:07:58;36.20;13.80
70820;DHT22;58439;51.046;13.692;2022-07-31T15:10:25;36.30;13.70
70820;DHT22;58439;51.046;13.692;2022-07-31T15:12:52;36.40;13.80
70820;DHT22;58439;51.046;13.692;2022-07-31T15:15:19;36.80;13.60
70820;DHT22;58439;51.046;13.692;2022-07-31T15:17:46;36.90;13.80
70820;DHT22;58439;51.046;13.692;2022-07-31T15:20:17;37.10;13.60
70820;DHT22;58439;51.046;13.692;2022-07-31T15:22:54;37.60;13.10
70820;DHT22;58439;51.046;13.692;2022-07-31T15:25:24;37.90;12.70
70820;DHT22;58439;51.046;13.692;2022-07-31T15:27:52;38.10;12.60
70820;DHT22;58439;51.046;13.692;2022-07-31T15:30:19;37.90;12.90
70820;DHT22;58439;51.046;13.692;2022-07-31T15:32:47;37.60;13.20
70820;DHT22;58439;51.046;13.692;2022-07-31T15:35:14;37.40;13.50
70820;DHT22;58439;51.046;13.692;2022-07-31T15:37:42;37.20;13.50
70820;DHT22;58439;51.046;13.692;2022-07-31T15:40:13;37.00;13.90
70820;DHT22;58439;51.046;13.692;2022-07-31T15:42:43;36.60;14.00
70820;DHT22;58439;51.046;13.692;2022-07-31T15:45:16;36.30;14.20
70820;DHT22;58439;51.046;13.692;2022-07-31T15:47:45;36.00;14.60
70820;DHT22;58439;51.046;13.692;2022-07-31T15:50:15;36.00;14.70
70820;DHT22;58439;51.046;13.692;2022-07-31T15:52:44;35.80;15.10
70820;DHT22;58439;51.046;13.692;2022-07-31T15:55:13;35.80;15.30
70820;DHT22;58439;51.046;13.692;2022-07-31T15:57:41;36.10;15.00
70820;DHT22;58439;51.046;13.692;2022-07-31T16:00:13;36.50;14.80
70820;DHT22;58439;51.046;13.692;2022-07-31T16:02:43;36.80;14.60
70820;DHT22;58439;51.046;13.692;2022-07-31T16:05:11;37.30;14.50
70820;DHT22;58439;51.046;13.692;2022-07-31T16:07:59;37.50;14.20
70820;DHT22;58439;51.046;13.692;2022-07-31T16:10:46;37.50;14.10
70820;DHT22;58439;51.046;13.692;2022-07-31T16:13:20;37.30;14.20
70820;DHT22;58439;51.046;13.692;2022-07-31T16:15:48;37.30;14.40
70820;DHT22;58439;51.046;13.692;2022-07-31T16:18:16;37.00;14.30
70820;DHT22;58439;51.046;13.692;2022-07-31T16:20:44;36.30;15.00
70820;DHT22;58439;51.046;13.692;2022-07-31T16:23:11;35.80;16.10
70820;DHT22;58439;51.046;13.692;2022-07-31T16:25:38;35.50;15.30
70820;DHT22;58439;51.046;13.692;2022-07-31T16:28:05;35.50;15.40
70820;DHT22;58439;51.046;13.692;2022-07-31T16:30:32;35.40;15.70
70820;DHT22;58439;51.046;13.692;2022-07-31T16:32:59;35.20;15.70
70820;DHT22;58439;51.046;13.692;2022-07-31T16:35:26;35.10;15.90
70820;DHT22;58439;51.046;13.692;2022-07-31T16:37:54;35.40;15.80
70820;DHT22;58439;51.046;13.692;2022-07-31T16:40:22;35.50;15.70
70820;DHT22;58439;51.046;13.692;2022-07-31T16:43:02;35.70;15.70
70820;DHT22;58439;51.046;13.692;2022-07-31T16:45:51;36.00;15.70
70820;DHT22;58439;51.046;13.692;2022-07-31T16:48:19;36.60;15.00
70820;DHT22;58439;51.046;13.692;2022-07-31T16:50:47;36.80;14.60
70820;DHT22;58439;51.046;13.692;2022-07-31T16:53:28;36.80;14.80
70820;DHT22;58439;51.046;13.692;2022-07-31T16:56:16;36.70;15.10
70820;DHT22;58439;51.046;13.692;2022-07-31T16:58:43;36.80;14.80
70820;DHT22;58439;51.046;13.692;2022-07-31T17:01:10;36.70;14.70
70820;DHT22;58439;51.046;13.692;2022-07-31T17:03:59;36.30;14.70
70820;DHT22;58439;51.046;13.692;2022-07-31T17:06:34;35.80;15.10
70820;DHT22;58439;51.046;13.692;2022-07-31T17:09:11;34.80;15.80
70820;DHT22;58439;51.046;13.692;2022-07-31T17:11:48;34.00;16.60
70820;DHT22;58439;51.046;13.692;2022-07-31T17:14:19;33.70;16.80
70820;DHT22;58439;51.046;13.692;2022-07-31T17:16:55;33.60;16.90
70820;DHT22;58439;51.046;13.692;2022-07-31T17:19:24;33.10;17.30
70820;DHT22;58439;51.046;13.692;2022-07-31T17:22:12;32.40;17.90
70820;DHT22;58439;51.046;13.692;2022-07-31T17:24:45;31.60;18.70
70820;DHT22;58439;51.046;13.692;2022-07-31T17:27:18;31.00;19.40
70820;DHT22;58439;51.046;13.692;2022-07-31T17:29:48;30.50;20.00
70820;DHT22;58439;51.046;13.692;2022-07-31T17:32:16;30.10;20.40
70820;DHT22;58439;51.046;13.692;2022-07-31T17:34:43;29.80;20.90
70820;DHT22;58439;51.046;13.692;2022-07-31T17:37:12;29.60;21.20
70820;DHT22;58439;51.046;13.692;2022-07-31T17:39:39;29.50;21.40
70820;DHT22;58439;51.046;13.692;2022-07-31T17:42:06;29.30;21.50
70820;DHT22;58439;51.046;13.692;2022-07-31T17:44:35;29.20;21.70
70820;DHT22;58439;51.046;13.692;2022-07-31T17:47:04;29.10;21.80
70820;DHT22;58439;51.046;13.692;2022-07-31T17:49:33;28.90;21.90
70820;DHT22;58439;51.046;13.692;2022-07-31T17:52:00;28.80;22.30
70820;DHT22;58439;51.046;13.692;2022-07-31T17:54:28;28.70;22.60
70820;DHT22;58439;51.046;13.692;2022-07-31T17:56:56;28.60;22.90
70820;DHT22;58439;51.046;13.692;2022-07-31T17:59:27;28.40;23.00
70820;DHT22;58439;51.046;13.692;2022-07-31T18:01:55;28.20;23.20
70820;DHT22;58439;51.046;13.692;2022-07-31T18:04:30;28.00;23.50
70820;DHT22;58439;51.046;13.692;2022-07-31T18:07:00;27.90;23.70
70820;DHT22;58439;51.046;13.692;2022-07-31T18:09:30;27.70;23.90
70820;DHT22;58439;51.046;13.692;2022-07-31T18:11:57;27.70;24.10
70820;DHT22;58439;51.046;13.692;2022-07-31T18:14:25;27.60;24.30
70820;DHT22;58439;51.046;13.692;2022-07-31T18:16:52;27.50;24.30
70820;DHT22;58439;51.046;13.692;2022-07-31T18:19:20;27.50;24.40
70820;DHT22;58439;51.046;13.692;2022-07-31T18:21:48;27.40;24.60
70820;DHT22;58439;51.046;13.692;2022-07-31T18:24:17;27.40;24.70
70820;DHT22;58439;51.046;13.692;2022-07-31T18:26:45;27.30;24.80
70820;DHT22;58439;51.046;13.692;2022-07-31T18:29:12;27.20;24.90
70820;DHT22;58439;51.046;13.692;2022-07-31T18:31:43;27.20;25.00
70820;DHT22;58439;51.046;13.692;2022-07-31T18:34:10;27.20;25.10
70820;DHT22;58439;51.046;13.692;2022-07-31T18:36:38;27.10;25.30
70820;DHT22;58439;51.046;13.692;2022-07-31T18:39:26;27.00;25.30
70820;DHT22;58439;51.046;13.692;2022-07-31T18:41:53;26.90;25.40
70820;DHT22;58439;51.046;13.692;2022-07-31T18:44:20;26.90;25.70
70820;DHT22;58439;51.046;13.692;2022-07-31T18:46:48;26.90;25.80
70820;DHT22;58439;51.046;13.692;2022-07-31T18:49:17;26.80;25.90
70820;DHT22;58439;51.046;13.692;2022-07-31T18:52:06;26.80;26.10
70820;DHT22;58439;51.046;13.692;2022-07-31T18:54:34;26.70;26.20
70820;DHT22;58439;51.046;13.692;2022-07-31T18:57:01;26.60;26.30
70820;DHT22;58439;51.046;13.692;2022-07-31T18:59:30;26.50;26.50
70820;DHT22;58439;51.046;13.692;2022-07-31T19:01:58;26.50;26.50
70820;DHT22;58439;51.046;13.692;2022-07-31T19:04:27;26.40;26.90
70820;DHT22;58439;51.046;13.692;2022-07-31T19:06:54;26.30;26.80
70820;DHT22;58439;51.046;13.692;2022-07-31T19:09:21;26.30;26.90
70820;DHT22;58439;51.046;13.692;2022-07-31T19:11:50;26.30;27.00
70820;DHT22;58439;51.046;13.692;2022-07-31T19:14:21;26.20;27.20
70820;DHT22;58439;51.046;13.692;2022-07-31T19:16:48;26.30;27.40
70820;DHT22;58439;51.046;13.692;2022-07-31T19:19:15;26.20;27.30
70820;DHT22;58439;51.046;13.692;2022-07-31T19:21:42;26.20;27.40
70820;DHT22;58439;51.046;13.692;2022-07-31T19:24:09;26.10;27.40
70820;DHT22;58439;51.046;13.692;2022-07-31T19:26:37;26.10;27.60
70820;DHT22;58439;51.046;13.692;2022-07-31T19:29:04;26.00;27.80
70820;DHT22;58439;51.046;13.692;2022-07-31T19:31:31;26.00;27.90
70820;DHT22;58439;51.046;13.692;2022-07-31T19:33:58;25.90;28.10
70820;DHT22;58439;51.046;13.692;2022-07-31T19:36:25;25.80;28.10
70820;DHT22;58439;51.046;13.692;2022-07-31T19:38:52;25.70;28.40
70820;DHT22;58439;51.046;13.692;2022-07-31T19:41:19;25.70;28.40
70820;DHT22;58439;51.046;13.692;2022-07-31T19:43:47;25.60;28.60
70820;DHT22;58439;51.046;13.692;2022-07-31T19:46:15;25.50;28.70
70820;DHT22;58439;51.046;13.692;2022-07-31T19:48:44;25.40;29.00
70820;DHT22;58439;51.046;13.692;2022-07-31T19:51:13;25.30;29.90
70820;DHT22;58439;51.046;13.692;2022-07-31T19:53:41;25.10;31.00
70820;DHT22;58439;51.046;13.692;2022-07-31T19:56:11;24.80;31.80
70820;DHT22;58439;51.046;13.692;2022-07-31T19:58:47;24.70;32.30
70820;DHT22;58439;51.046;13.692;2022-07-31T20:01:15;24.60;32.60
70820;DHT22;58439;51.046;13.692;2022-07-31T20:03:45;24.60;33.00
70820;DHT22;58439;51.046;13.692;2022-07-31T20:06:14;24.60;33.10
70820;DHT22;58439;51.046;13.692;2022-07-31T20:08:41;24.60;33.50
70820;DHT22;58439;51.046;13.692;2022-07-31T20:11:09;24.60;33.80
70820;DHT22;58439;51.046;13.692;2022-07-31T20:13:36;24.60;33.90
70820;DHT22;58439;51.046;13.692;2022-07-31T20:16:06;24.50;34.10
70820;DHT22;58439;51.046;13.692;2022-07-31T20:18:33;24.50;34.20
70820;DHT22;58439;51.046;13.692;2022-07-31T20:21:05;24.50;34.40
70820;DHT22;58439;51.046;13.692;2022-07-31T20:23:37;24.50;34.30
70820;DHT22;58439;51.046;13.692;2022-07-31T20:26:06;24.50;34.40
70820;DHT22;58439;51.046;13.692;2022-07-31T20:28:35;24.50;34.60
70820;DHT22;58439;51.046;13.692;2022-07-31T20:31:02;24.40;34.80
70820;DHT22;58439;51.046;13.692;2022-07-31T20:33:29;24.30;35.00
70820;DHT22;58439;51.046;13.692;2022-07-31T20:35:56;24.30;35.30
70820;DHT22;58439;51.046;13.692;2022-07-31T20:38:23;24.20;35.40
70820;DHT22;58439;51.046;13.692;2022-07-31T20:40:52;24.20;35.60
70820;DHT22;58439;51.046;13.692;2022-07-31T20:43:26;24.20;35.70
70820;DHT22;58439;51.046;13.692;2022-07-31T20:45:56;24.20;35.80
70820;DHT22;58439;51.046;13.692;2022-07-31T20:48:57;24.20;35.90
70820;DHT22;58439;51.046;13.692;2022-07-31T20:51:58;24.20;36.10